Time;durP1;ratioP1;P1;durP2;ratioP2;P2;SDS_P1;SDS_P2;PMS_P1;PMS_P2;Temp;Humidity;BMP_temperature;BMP_pressure;BME280_temperature;BME280_humidity;BME280_pressure;Samples;Min_cycle;Max_cycle;Signal;HPM_P1;HPM_P2
2023/06/20 00:00:50;;;;;;;2.40;1.35;;;24.60;99.90;;;;;;5072521;28;20046;-74
2023/06/20 00:03:16;;;;;;;0.10;0.10;;;24.40;99.90;;;;;;5072938;28;20032;-74
2023/06/20 00:05:42;;;;;;;0.00;0.00;;;24.40;99.90;;;;;;5072797;28;20039;-74
2023/06/20 00:08:09;;;;;;;0.00;0.00;;;24.40;99.90;;;;;;5073025;28;20557;-73
2023/06/20 00:10:35;;;;;;;0.10;0.10;;;24.50;99.90;;;;;;5072705;28;20042;-76
2023/06/20 00:13:00;;;;;;;0.05;0.05;;;24.70;99.90;;;;;;5072689;28;20048;-74
2023/06/20 00:15:27;;;;;;;0.20;0.20;;;24.80;99.60;;;;;;5072777;28;20031;-75
2023/06/20 00:17:54;;;;;;;0.75;0.75;;;24.70;99.90;;;;;;5072557;28;20397;-75
2023/06/20 00:20:20;;;;;;;0.00;0.00;;;24.60;99.70;;;;;;5054995;28;20040;-74
2023/06/20 00:22:45;;;;;;;0.00;0.00;;;24.60;99.70;;;;;;5072584;28;20025;-75
2023/06/20 00:25:12;;;;;;;0.00;0.00;;;24.70;99.70;;;;;;5072795;28;20165;-75
2023/06/20 00:27:38;;;;;;;0.13;0.13;;;24.60;99.90;;;;;;5072730;28;20073;-75
2023/06/20 00:30:05;;;;;;;0.00;0.00;;;24.60;99.90;;;;;;5072342;28;20017;-74
2023/06/20 00:32:32;;;;;;;0.00;0.00;;;24.80;99.70;;;;;;5070978;28;20028;-74
2023/06/20 00:34:58;;;;;;;0.00;0.00;;;24.80;99.90;;;;;;5072815;28;20090;-75
2023/06/20 00:37:25;;;;;;;0.10;0.10;;;24.80;99.70;;;;;;5071053;28;20097;-74
2023/06/20 00:39:51;;;;;;;0.00;0.00;;;24.90;99.90;;;;;;5072765;28;20032;-74
2023/06/20 00:42:19;;;;;;;0.20;0.20;;;24.90;99.60;;;;;;5070936;28;20425;-75
2023/06/20 00:44:45;;;;;;;0.00;0.00;;;24.70;99.90;;;;;;5070949;28;20074;-74
2023/06/20 00:47:17;;;;;;;0.00;0.00;;;24.80;99.40;;;;;;5070869;28;20025;-75
2023/06/20 00:49:47;;;;;;;0.10;0.10;;;24.80;99.90;;;;;;5071792;28;20028;-74
2023/06/20 00:52:31;;;;;;;0.77;0.77;;;24.70;99.90;;;;;;5076396;28;20040;-75
2023/06/20 00:54:57;;;;;;;0.00;0.00;;;24.90;99.50;;;;;;5077083;28;20024;-74
2023/06/20 00:57:24;;;;;;;1.13;0.90;;;24.90;99.60;;;;;;5058134;28;20047;-74
2023/06/20 00:59:50;;;;;;;0.00;0.00;;;24.90;99.90;;;;;;5074993;28;20376;-74
2023/06/20 01:02:17;;;;;;;0.28;0.28;;;24.80;99.80;;;;;;5074922;28;20028;-74
2023/06/20 01:04:44;;;;;;;0.00;0.00;;;24.60;99.90;;;;;;5075217;28;20095;-74
2023/06/20 01:07:36;;;;;;;0.10;0.10;;;24.60;99.90;;;;;;5070687;28;20040;-74
2023/06/20 01:10:18;;;;;;;0.05;0.05;;;24.80;99.90;;;;;;5067726;28;20029;-74
2023/06/20 01:12:43;;;;;;;0.00;0.00;;;24.70;99.90;;;;;;5054851;28;20508;-74
2023/06/20 01:15:18;;;;;;;0.00;0.00;;;24.90;99.90;;;;;;5051336;28;20033;-74
2023/06/20 01:17:55;;;;;;;0.00;0.00;;;25.00;99.30;;;;;;5038676;28;20029;-75
2023/06/20 01:20:28;;;;;;;0.45;0.45;;;25.20;98.90;;;;;;5054923;28;20029;-74
2023/06/20 01:23:33;;;;;;;0.00;0.00;;;24.70;99.90;;;;;;5056040;28;20082;-74
2023/06/20 01:26:08;;;;;;;0.10;0.10;;;24.30;99.90;;;;;;5004626;28;20037;-75
2023/06/20 01:28:50;;;;;;;1.55;0.52;;;24.50;99.90;;;;;;5054387;28;20044;-74
2023/06/20 01:31:20;;;;;;;0.05;0.05;;;24.40;99.90;;;;;;5037784;28;20119;-74
2023/06/20 01:33:58;;;;;;;0.00;0.00;;;24.20;99.90;;;;;;5054393;28;20375;-75
2023/06/20 01:36:28;;;;;;;3.30;0.35;;;24.40;99.90;;;;;;5054404;28;20036;-74
2023/06/20 01:39:02;;;;;;;0.00;0.00;;;24.80;99.90;;;;;;5055638;28;20037;-74
2023/06/20 01:41:30;;;;;;;0.00;0.00;;;24.80;99.90;;;;;;5053811;28;20029;-75
2023/06/20 01:43:57;;;;;;;0.08;0.08;;;24.60;99.90;;;;;;5054360;28;20508;-74
2023/06/20 01:46:24;;;;;;;0.50;0.50;;;24.20;99.90;;;;;;5053308;28;20385;-74
2023/06/20 01:48:51;;;;;;;3.30;1.20;;;24.10;99.90;;;;;;5054121;28;20410;-74
2023/06/20 01:51:18;;;;;;;2.08;1.98;;;23.80;99.90;;;;;;5052886;28;20082;-74
2023/06/20 01:53:45;;;;;;;0.10;0.10;;;23.90;99.90;;;;;;5053903;28;20102;-76
2023/06/20 01:56:12;;;;;;;0.45;0.22;;;23.90;99.90;;;;;;5052974;28;20025;-75
2023/06/20 01:58:42;;;;;;;0.10;0.10;;;23.80;99.90;;;;;;5052776;28;20393;-77
2023/06/20 02:01:10;;;;;;;0.70;0.45;;;23.60;99.90;;;;;;5052535;28;20028;-75
2023/06/20 02:03:36;;;;;;;0.52;0.52;;;23.80;99.90;;;;;;5053857;28;20025;-74
2023/06/20 02:06:03;;;;;;;0.85;0.85;;;23.60;99.90;;;;;;5052798;28;20021;-74
2023/06/20 02:08:30;;;;;;;0.35;0.35;;;23.90;99.90;;;;;;5054031;28;20474;-75
2023/06/20 02:10:57;;;;;;;0.00;0.00;;;23.60;99.90;;;;;;5053359;28;20457;-74
2023/06/20 02:13:23;;;;;;;0.20;0.20;;;23.50;99.90;;;;;;5053793;28;20048;-74
2023/06/20 02:15:53;;;;;;;0.57;0.57;;;23.70;99.90;;;;;;5052458;28;20013;-74
2023/06/20 02:18:20;;;;;;;0.10;0.10;;;23.60;99.90;;;;;;5053796;28;20121;-75
2023/06/20 02:20:53;;;;;;;0.30;0.30;;;23.40;99.90;;;;;;5053948;28;20369;-77
2023/06/20 02:23:29;;;;;;;0.25;0.25;;;23.50;99.90;;;;;;5053846;28;20427;-75
2023/06/20 02:26:07;;;;;;;0.10;0.10;;;23.70;99.90;;;;;;5053265;28;20082;-74
2023/06/20 02:28:36;;;;;;;0.00;0.00;;;23.70;99.90;;;;;;5053937;28;20036;-77
2023/06/20 02:31:03;;;;;;;0.10;0.10;;;23.40;99.90;;;;;;5053329;28;20036;-74
2023/06/20 02:33:32;;;;;;;3.42;2.40;;;23.20;99.90;;;;;;5052392;28;20114;-75
2023/06/20 02:36:01;;;;;;;1.08;1.05;;;23.10;99.90;;;;;;5051967;28;20029;-74
2023/06/20 02:38:27;;;;;;;0.90;0.90;;;23.10;99.90;;;;;;5052251;28;20025;-74
2023/06/20 02:40:53;;;;;;;0.10;0.10;;;23.00;99.90;;;;;;5051593;28;20035;-74
2023/06/20 02:43:18;;;;;;;0.10;0.10;;;23.20;99.90;;;;;;5014247;28;1144877;-75
2023/06/20 02:46:02;;;;;;;1.17;1.08;;;23.00;99.90;;;;;;5053008;28;20033;-73
2023/06/20 02:48:49;;;;;;;1.27;0.90;;;22.90;99.90;;;;;;5054285;28;20075;-74
2023/06/20 02:51:41;;;;;;;0.00;0.00;;;22.90;99.90;;;;;;5052806;28;20466;-74
2023/06/20 02:54:19;;;;;;;5.82;1.85;;;23.00;99.90;;;;;;5053926;28;20041;-74
2023/06/20 02:56:51;;;;;;;0.00;0.00;;;23.10;99.90;;;;;;5052942;28;20041;-75
2023/06/20 02:59:18;;;;;;;0.22;0.22;;;23.00;99.90;;;;;;5052954;28;20028;-73
2023/06/20 03:01:47;;;;;;;0.00;0.00;;;23.30;99.90;;;;;;5053931;28;20024;-74
2023/06/20 03:04:17;;;;;;;0.13;0.13;;;23.20;99.90;;;;;;5052813;28;20035;-75
2023/06/20 03:06:43;;;;;;;0.38;0.32;;;23.20;99.90;;;;;;5053947;28;20434;-74
2023/06/20 03:09:11;;;;;;;0.10;0.10;;;23.20;99.90;;;;;;5052487;28;20119;-74
2023/06/20 03:11:37;;;;;;;0.73;0.40;;;23.20;99.90;;;;;;5052425;28;20041;-74
2023/06/20 03:14:03;;;;;;;1.85;1.00;;;23.10;99.90;;;;;;5051551;28;20036;-75
2023/06/20 03:16:30;;;;;;;0.10;0.10;;;23.10;99.90;;;;;;5052593;28;20051;-74
2023/06/20 03:18:57;;;;;;;0.65;0.65;;;23.20;99.90;;;;;;5052434;28;20028;-74
2023/06/20 03:21:27;;;;;;;2.38;1.17;;;23.30;99.90;;;;;;5036445;28;20028;-74
2023/06/20 03:23:52;;;;;;;0.08;0.08;;;23.20;99.90;;;;;;5052083;28;20025;-75
2023/06/20 03:26:18;;;;;;;2.50;2.30;;;23.20;99.90;;;;;;5053314;28;20032;-75
2023/06/20 03:28:44;;;;;;;0.00;0.00;;;23.10;99.90;;;;;;5052450;28;20021;-74
2023/06/20 03:31:11;;;;;;;0.45;0.45;;;23.20;99.90;;;;;;5053182;28;20025;-74
2023/06/20 03:33:36;;;;;;;0.73;0.73;;;23.10;99.90;;;;;;5053325;28;20036;-75
2023/06/20 03:36:03;;;;;;;0.10;0.10;;;23.00;99.90;;;;;;5053279;28;20227;-74
2023/06/20 03:38:29;;;;;;;0.63;0.63;;;23.00;99.90;;;;;;5053461;28;20025;-73
2023/06/20 03:40:55;;;;;;;2.03;1.85;;;23.10;99.90;;;;;;5051729;28;20559;-74
2023/06/20 03:43:20;;;;;;;0.10;0.10;;;23.00;99.90;;;;;;5051818;28;20502;-74
2023/06/20 03:45:47;;;;;;;1.45;0.47;;;23.10;99.90;;;;;;5051913;28;20052;-74
2023/06/20 03:48:13;;;;;;;0.00;0.00;;;23.00;99.90;;;;;;5051137;28;20469;-74
2023/06/20 03:50:39;;;;;;;0.00;0.00;;;23.00;99.90;;;;;;5051423;28;20067;-74
2023/06/20 03:53:08;;;;;;;0.20;0.20;;;22.90;99.90;;;;;;5051229;28;20037;-74
2023/06/20 03:55:34;;;;;;;0.38;0.38;;;23.00;99.90;;;;;;5051887;28;20017;-74
2023/06/20 03:58:00;;;;;;;0.55;0.55;;;22.90;99.90;;;;;;5051580;28;20036;-74
2023/06/20 04:00:26;;;;;;;0.00;0.00;;;22.90;99.90;;;;;;5051785;28;20013;-74
2023/06/20 04:02:53;;;;;;;1.00;0.43;;;23.10;99.90;;;;;;5052629;28;20032;-74
2023/06/20 04:05:18;;;;;;;0.20;0.20;;;23.00;99.90;;;;;;5051647;28;20021;-74
2023/06/20 04:07:44;;;;;;;0.08;0.08;;;22.90;99.90;;;;;;5051537;28;20539;-74
2023/06/20 04:10:11;;;;;;;0.35;0.35;;;23.00;99.90;;;;;;5052638;28;20021;-74
2023/06/20 04:12:39;;;;;;;0.00;0.00;;;23.00;99.90;;;;;;5051529;28;20489;-74
2023/06/20 04:15:06;;;;;;;0.00;0.00;;;22.90;99.90;;;;;;5051259;28;20040;-74
2023/06/20 04:17:32;;;;;;;0.35;0.35;;;22.90;99.90;;;;;;5052450;28;20499;-74
2023/06/20 04:19:59;;;;;;;0.10;0.10;;;23.00;99.90;;;;;;5051647;28;20116;-74
2023/06/20 04:22:28;;;;;;;2.38;1.33;;;22.80;99.90;;;;;;5050976;28;20087;-74
2023/06/20 04:24:54;;;;;;;0.45;0.45;;;22.60;99.90;;;;;;5034714;28;20389;-74
2023/06/20 04:27:20;;;;;;;0.00;0.00;;;22.70;99.90;;;;;;5051510;28;20025;-73
2023/06/20 04:29:52;;;;;;;0.50;0.50;;;22.50;99.90;;;;;;5051558;28;20024;-74
2023/06/20 04:32:18;;;;;;;0.40;0.40;;;22.60;99.90;;;;;;5052839;28;20037;-74
2023/06/20 04:34:44;;;;;;;0.20;0.20;;;22.70;99.90;;;;;;5051534;28;20056;-75
2023/06/20 04:37:11;;;;;;;0.25;0.25;;;22.70;99.90;;;;;;5051076;28;20067;-74
2023/06/20 04:39:37;;;;;;;0.80;0.80;;;22.90;99.90;;;;;;5051412;28;20465;-74
2023/06/20 04:42:04;;;;;;;0.30;0.30;;;22.90;99.90;;;;;;5051307;28;20112;-73
2023/06/20 04:44:29;;;;;;;7.60;2.25;;;22.80;99.90;;;;;;5051196;28;20033;-74
2023/06/20 04:46:55;;;;;;;0.00;0.00;;;22.90;99.90;;;;;;5052645;28;20544;-74
2023/06/20 04:49:22;;;;;;;0.10;0.10;;;23.00;99.90;;;;;;5051236;28;20388;-74
2023/06/20 04:51:48;;;;;;;0.00;0.00;;;23.00;99.90;;;;;;5051187;28;20443;-74
2023/06/20 04:54:13;;;;;;;0.43;0.20;;;22.90;99.90;;;;;;5051243;28;20037;-75
2023/06/20 04:56:42;;;;;;;0.15;0.15;;;23.00;99.90;;;;;;5051361;28;20043;-74
2023/06/20 04:59:08;;;;;;;0.63;0.63;;;22.90;99.90;;;;;;5050964;28;20060;-74
2023/06/20 05:01:34;;;;;;;0.55;0.55;;;22.90;99.90;;;;;;5050989;28;20029;-74
2023/06/20 05:04:05;;;;;;;0.00;0.00;;;22.90;99.90;;;;;;5051042;28;20025;-73
2023/06/20 05:06:31;;;;;;;6.43;2.10;;;23.00;99.90;;;;;;5051250;28;20075;-74
2023/06/20 05:08:57;;;;;;;0.75;0.63;;;23.00;99.90;;;;;;5051342;28;20025;-75
2023/06/20 05:11:23;;;;;;;0.57;0.57;;;23.20;99.90;;;;;;5050892;28;20025;-75
2023/06/20 05:13:49;;;;;;;1.23;0.77;;;23.20;99.90;;;;;;5051850;28;20040;-76
2023/06/20 05:16:14;;;;;;;0.20;0.20;;;23.00;99.90;;;;;;5052280;28;20030;-77
2023/06/20 05:18:40;;;;;;;1.35;1.25;;;23.10;99.90;;;;;;5051801;28;20033;-75
2023/06/20 05:21:06;;;;;;;0.20;0.20;;;23.00;99.90;;;;;;5049063;28;20230;-75
2023/06/20 05:23:32;;;;;;;0.35;0.30;;;22.80;99.90;;;;;;5044001;28;20036;-76
2023/06/20 05:26:00;;;;;;;0.30;0.30;;;22.80;99.90;;;;;;5049871;28;20025;-75
2023/06/20 05:28:26;;;;;;;0.85;0.85;;;22.80;99.90;;;;;;5050279;28;20033;-76
2023/06/20 05:30:52;;;;;;;0.57;0.57;;;22.80;99.90;;;;;;5050909;28;20017;-75
2023/06/20 05:33:18;;;;;;;0.95;0.43;;;22.60;99.90;;;;;;5050798;28;20055;-76
2023/06/20 05:35:46;;;;;;;15.98;2.20;;;22.70;99.90;;;;;;5051623;28;20124;-76
2023/06/20 05:38:12;;;;;;;3.15;1.90;;;22.50;99.90;;;;;;5053607;28;20025;-76
2023/06/20 05:40:38;;;;;;;5.03;2.10;;;22.40;99.90;;;;;;5054815;28;20033;-76
2023/06/20 05:43:04;;;;;;;1.35;1.10;;;22.40;99.90;;;;;;5054658;28;20040;-79
2023/06/20 05:45:30;;;;;;;3.00;2.05;;;22.50;99.90;;;;;;5054900;28;20032;-75
2023/06/20 05:47:58;;;;;;;2.17;2.00;;;22.70;99.90;;;;;;5054299;28;20029;-77
2023/06/20 05:50:25;;;;;;;0.63;0.40;;;22.70;99.90;;;;;;5054415;28;20021;-76
2023/06/20 05:52:51;;;;;;;0.30;0.30;;;22.80;99.90;;;;;;5054130;28;20512;-76
2023/06/20 05:55:18;;;;;;;2.60;2.40;;;23.10;99.90;;;;;;5054511;28;20036;-77
2023/06/20 05:57:44;;;;;;;0.90;0.90;;;23.00;99.90;;;;;;5054705;28;20036;-77
2023/06/20 06:00:13;;;;;;;3.38;1.08;;;22.90;99.90;;;;;;5053814;28;20021;-79
2023/06/20 06:02:49;;;;;;;4.40;1.20;;;22.90;99.90;;;;;;5054137;28;20025;-79
2023/06/20 06:05:15;;;;;;;1.75;1.08;;;22.70;99.90;;;;;;5054095;28;20043;-78
2023/06/20 06:07:41;;;;;;;4.15;2.42;;;22.80;99.90;;;;;;5053019;28;20104;-75
2023/06/20 06:10:08;;;;;;;6.78;0.60;;;22.60;99.90;;;;;;5052555;28;20028;-75
2023/06/20 06:12:37;;;;;;;0.30;0.30;;;22.50;99.90;;;;;;5052052;28;20147;-76
2023/06/20 06:15:04;;;;;;;0.20;0.20;;;22.90;99.90;;;;;;5044988;28;20040;-75
2023/06/20 06:17:31;;;;;;;0.30;0.30;;;22.80;99.90;;;;;;5054100;28;20021;-79
2023/06/20 06:19:57;;;;;;;0.85;0.85;;;22.80;99.90;;;;;;5054104;28;20116;-76
2023/06/20 06:22:24;;;;;;;0.90;0.73;;;22.80;99.90;;;;;;5042583;28;20028;-75
2023/06/20 06:24:51;;;;;;;1.98;1.65;;;23.00;99.90;;;;;;5053713;28;20029;-76
2023/06/20 06:27:17;;;;;;;1.95;1.27;;;23.00;99.90;;;;;;5052569;28;20145;-78
2023/06/20 06:29:43;;;;;;;2.42;2.08;;;23.10;99.90;;;;;;5054010;28;20035;-77
2023/06/20 06:32:11;;;;;;;1.52;1.38;;;23.10;99.90;;;;;;5055132;28;20029;-77
2023/06/20 06:34:38;;;;;;;0.93;0.90;;;23.10;99.90;;;;;;5055382;28;20036;-75
2023/06/20 06:37:04;;;;;;;3.15;2.33;;;23.30;99.90;;;;;;5053927;28;20024;-76
2023/06/20 06:39:30;;;;;;;9.73;1.40;;;23.30;99.90;;;;;;5053343;28;20039;-76
2023/06/20 06:41:56;;;;;;;0.20;0.20;;;23.30;99.90;;;;;;5053345;28;20491;-76
2023/06/20 06:44:22;;;;;;;0.30;0.30;;;23.40;99.90;;;;;;5044763;28;20072;-75
2023/06/20 06:46:48;;;;;;;0.30;0.30;;;23.40;99.90;;;;;;5067306;28;20049;-76
2023/06/20 06:49:14;;;;;;;1.88;1.77;;;23.50;99.90;;;;;;5051277;28;20503;-75
2023/06/20 06:51:40;;;;;;;1.60;1.35;;;23.50;99.90;;;;;;5052990;28;20504;-76
2023/06/20 06:54:06;;;;;;;1.52;0.93;;;23.50;99.90;;;;;;5053265;28;20032;-75
2023/06/20 06:56:32;;;;;;;0.85;0.82;;;23.50;99.90;;;;;;5053215;28;20393;-76
2023/06/20 06:59:00;;;;;;;1.20;0.80;;;23.50;99.90;;;;;;5052899;28;20025;-76
2023/06/20 07:01:28;;;;;;;0.17;0.17;;;23.50;99.90;;;;;;5052671;28;20013;-76
2023/06/20 07:03:54;;;;;;;5.55;1.40;;;23.60;99.90;;;;;;5053833;28;20053;-75
2023/06/20 07:06:20;;;;;;;0.10;0.10;;;23.60;99.90;;;;;;5053968;28;20122;-76
2023/06/20 07:08:46;;;;;;;0.52;0.30;;;23.80;99.90;;;;;;5052482;28;20071;-77
2023/06/20 07:11:12;;;;;;;0.00;0.00;;;23.80;99.90;;;;;;5053274;28;20114;-77
2023/06/20 07:13:38;;;;;;;0.20;0.20;;;24.00;99.90;;;;;;5053792;28;20520;-77
2023/06/20 07:16:04;;;;;;;1.58;1.48;;;24.10;99.90;;;;;;5053406;28;20021;-75
2023/06/20 07:18:30;;;;;;;0.45;0.45;;;24.20;99.90;;;;;;5046429;28;20087;-76
2023/06/20 07:20:59;;;;;;;0.10;0.10;;;24.40;99.90;;;;;;5050194;28;20132;-77
2023/06/20 07:23:25;;;;;;;0.10;0.10;;;24.60;99.90;;;;;;5053509;28;20032;-77
2023/06/20 07:25:51;;;;;;;0.45;0.45;;;24.80;99.90;;;;;;5053038;28;20027;-77
2023/06/20 07:28:17;;;;;;;1.38;1.27;;;24.80;99.90;;;;;;5053758;28;20029;-77
2023/06/20 07:30:43;;;;;;;6.72;2.17;;;24.80;99.90;;;;;;5053127;28;20473;-77
2023/06/20 07:33:08;;;;;;;0.93;0.77;;;24.70;99.90;;;;;;5053240;28;20103;-77
2023/06/20 07:35:34;;;;;;;0.10;0.10;;;24.80;99.90;;;;;;5053438;28;20539;-77
2023/06/20 07:38:01;;;;;;;1.45;0.63;;;25.10;99.90;;;;;;5053271;28;20032;-77
2023/06/20 07:40:27;;;;;;;0.95;0.95;;;25.30;99.90;;;;;;5036191;28;20054;-77
2023/06/20 07:42:53;;;;;;;0.10;0.10;;;25.40;99.90;;;;;;5052831;28;20401;-77
2023/06/20 07:45:19;;;;;;;0.73;0.73;;;25.60;99.90;;;;;;5053170;28;20512;-76
2023/06/20 07:47:45;;;;;;;2.35;1.25;;;26.00;99.90;;;;;;5052665;28;20029;-77
2023/06/20 07:50:10;;;;;;;0.73;0.73;;;25.90;99.90;;;;;;5053032;28;20393;-77
2023/06/20 07:52:36;;;;;;;0.17;0.17;;;25.70;99.90;;;;;;5052877;28;20029;-77
2023/06/20 07:55:04;;;;;;;10.40;1.27;;;25.90;99.90;;;;;;5053016;28;20480;-77
2023/06/20 07:57:30;;;;;;;0.38;0.38;;;26.10;99.90;;;;;;5053087;28;20025;-77
2023/06/20 07:59:56;;;;;;;0.10;0.10;;;26.20;99.90;;;;;;5052372;28;20028;-77
2023/06/20 08:02:22;;;;;;;0.30;0.30;;;26.70;99.90;;;;;;5053027;28;20438;-77
2023/06/20 08:04:48;;;;;;;0.65;0.65;;;27.10;99.90;;;;;;5053077;28;20064;-77
2023/06/20 08:07:14;;;;;;;1.63;0.65;;;27.00;99.90;;;;;;5052775;28;20397;-77
2023/06/20 08:09:40;;;;;;;1.95;1.42;;;26.50;99.90;;;;;;5051805;28;20083;-77
2023/06/20 08:12:07;;;;;;;0.00;0.00;;;26.10;99.90;;;;;;5052772;28;20025;-77
2023/06/20 08:14:32;;;;;;;1.83;0.68;;;26.10;99.90;;;;;;5052563;28;20051;-77
2023/06/20 08:16:58;;;;;;;0.00;0.00;;;26.50;99.90;;;;;;5052741;28;20572;-77
2023/06/20 08:19:24;;;;;;;0.68;0.68;;;26.80;99.90;;;;;;5052640;28;20079;-77
2023/06/20 08:21:50;;;;;;;0.17;0.17;;;27.00;99.90;;;;;;5052651;28;20086;-77
2023/06/20 08:24:15;;;;;;;0.75;0.75;;;27.00;99.90;;;;;;5052786;28;20048;-77
2023/06/20 08:26:41;;;;;;;0.70;0.52;;;27.20;99.90;;;;;;5052519;28;20473;-78
2023/06/20 08:29:08;;;;;;;3.15;1.13;;;26.60;99.90;;;;;;5052289;28;20025;-76
2023/06/20 08:31:36;;;;;;;3.35;0.95;;;26.80;99.90;;;;;;5052644;28;20025;-75
2023/06/20 08:34:03;;;;;;;2.25;1.45;;;26.70;99.90;;;;;;5052426;28;20033;-77
2023/06/20 08:36:29;;;;;;;0.25;0.20;;;26.90;99.90;;;;;;5052611;28;20147;-79
2023/06/20 08:38:55;;;;;;;1.42;0.55;;;27.10;99.90;;;;;;5052235;28;20492;-77
2023/06/20 08:41:25;;;;;;;1.15;0.70;;;27.20;99.90;;;;;;5052349;28;20044;-77
2023/06/20 08:43:51;;;;;;;0.85;0.40;;;27.20;99.90;;;;;;5052560;28;20036;-77
2023/06/20 08:46:16;;;;;;;2.08;1.00;;;27.10;99.90;;;;;;5052259;28;20021;-78
2023/06/20 08:48:42;;;;;;;0.30;0.30;;;27.00;99.90;;;;;;5052549;28;20032;-78
2023/06/20 08:51:12;;;;;;;1.08;0.50;;;26.80;99.90;;;;;;5052364;28;20027;-78
2023/06/20 08:53:39;;;;;;;3.30;0.73;;;27.00;99.90;;;;;;5052290;28;20032;-77
2023/06/20 08:56:05;;;;;;;2.20;0.88;;;27.10;99.90;;;;;;5052148;28;20036;-78
2023/06/20 08:58:32;;;;;;;0.73;0.73;;;27.10;99.90;;;;;;5052295;28;20017;-78
2023/06/20 09:00:58;;;;;;;0.57;0.57;;;27.10;99.90;;;;;;5052141;28;20029;-78
2023/06/20 09:03:24;;;;;;;2.05;1.65;;;26.90;99.90;;;;;;5052177;28;20078;-77
2023/06/20 09:05:49;;;;;;;2.55;1.40;;;26.90;99.90;;;;;;5052396;28;20029;-79
2023/06/20 09:08:15;;;;;;;0.50;0.50;;;26.80;99.90;;;;;;5050866;28;20021;-78
2023/06/20 09:10:42;;;;;;;0.15;0.15;;;26.60;99.90;;;;;;5052019;28;20029;-78
2023/06/20 09:13:10;;;;;;;0.75;0.52;;;27.10;99.90;;;;;;5055936;28;20588;-78
2023/06/20 09:15:38;;;;;;;2.17;1.60;;;27.50;99.90;;;;;;5055968;28;20029;-78
2023/06/20 09:18:06;;;;;;;3.28;0.73;;;27.20;99.90;;;;;;5056113;28;20029;-78
2023/06/20 09:20:32;;;;;;;2.83;1.35;;;27.30;99.90;;;;;;5056074;28;20115;-78
2023/06/20 09:22:59;;;;;;;3.53;1.50;;;27.40;99.90;;;;;;5055941;28;20037;-78
2023/06/20 09:25:27;;;;;;;0.35;0.35;;;27.30;99.90;;;;;;5054783;28;20060;-78
2023/06/20 09:27:54;;;;;;;0.03;0.03;;;27.30;99.90;;;;;;5056055;28;20029;-77
2023/06/20 09:30:20;;;;;;;0.40;0.28;;;27.60;99.90;;;;;;5054751;28;20040;-77
2023/06/20 09:32:46;;;;;;;0.68;0.35;;;27.60;99.90;;;;;;5055865;28;20390;-78
2023/06/20 09:35:14;;;;;;;0.38;0.38;;;27.60;99.90;;;;;;5055643;28;20072;-78
2023/06/20 09:37:47;;;;;;;0.20;0.20;;;27.80;99.90;;;;;;5055979;28;20068;-77
2023/06/20 09:40:18;;;;;;;0.25;0.25;;;28.50;98.90;;;;;;5055395;28;20573;-78
2023/06/20 09:42:45;;;;;;;5.85;1.58;;;28.50;98.70;;;;;;5054133;28;20493;-77
2023/06/20 09:45:13;;;;;;;0.55;0.55;;;28.30;98.50;;;;;;5054400;28;20021;-77
2023/06/20 09:47:40;;;;;;;0.57;0.40;;;27.90;98.80;;;;;;5055070;28;20029;-78
2023/06/20 09:50:08;;;;;;;0.20;0.20;;;27.90;98.80;;;;;;5037114;28;20393;-78
2023/06/20 09:52:50;;;;;;;0.05;0.05;;;28.00;99.10;;;;;;5055327;28;20122;-78
2023/06/20 09:55:18;;;;;;;3.03;1.00;;;28.30;98.70;;;;;;5055041;28;20021;-79
2023/06/20 09:57:51;;;;;;;0.00;0.00;;;28.00;98.60;;;;;;5055197;28;20021;-78
2023/06/20 10:00:17;;;;;;;0.32;0.32;;;28.50;98.80;;;;;;5053756;28;20457;-79
2023/06/20 10:02:45;;;;;;;0.22;0.22;;;29.00;98.30;;;;;;5055272;28;20021;-77
2023/06/20 10:05:18;;;;;;;0.55;0.30;;;29.20;97.20;;;;;;5054940;28;20098;-79
2023/06/20 10:07:47;;;;;;;0.85;0.38;;;29.50;97.10;;;;;;5037406;28;20095;-79
2023/06/20 10:10:14;;;;;;;0.88;0.65;;;29.40;96.80;;;;;;5054756;28;20025;-79
2023/06/20 10:12:42;;;;;;;0.45;0.30;;;29.20;96.70;;;;;;5055097;28;20040;-78
2023/06/20 10:15:09;;;;;;;3.63;0.85;;;29.50;96.50;;;;;;5054720;28;20048;-78
2023/06/20 10:17:43;;;;;;;2.88;2.67;;;29.30;96.40;;;;;;5054972;28;20025;-79
2023/06/20 10:20:31;;;;;;;0.88;0.40;;;29.10;96.40;;;;;;5053494;28;20551;-79
2023/06/20 10:23:03;;;;;;;0.00;0.00;;;29.20;96.80;;;;;;5053897;28;20029;-75
2023/06/20 10:25:29;;;;;;;1.45;1.02;;;29.20;96.40;;;;;;5054632;28;20056;-81
2023/06/20 10:27:57;;;;;;;0.20;0.20;;;29.40;96.40;;;;;;5054223;28;20056;-78
2023/06/20 10:30:58;;;;;;;1.48;0.90;;;29.60;96.10;;;;;;5054538;28;20489;-76
2023/06/20 10:33:34;;;;;;;1.77;0.23;;;29.70;95.60;;;;;;5042207;28;20052;-79
2023/06/20 10:36:07;;;;;;;3.40;0.35;;;29.50;96.80;;;;;;5054536;28;20058;-76
2023/06/20 10:38:37;;;;;;;0.00;0.00;;;29.60;96.60;;;;;;5054608;28;20230;-78
2023/06/20 10:41:25;;;;;;;24.50;0.75;;;30.20;95.70;;;;;;5053910;28;20542;-77
2023/06/20 10:43:57;;;;;;;0.40;0.40;;;30.50;94.80;;;;;;5054915;28;20426;-75
2023/06/20 10:46:29;;;;;;;0.10;0.10;;;30.40;95.10;;;;;;5053135;28;20033;-75
2023/06/20 10:48:55;;;;;;;1.40;1.05;;;29.70;95.80;;;;;;5054545;28;20157;-74
2023/06/20 10:51:21;;;;;;;1.48;0.52;;;29.50;96.10;;;;;;5053941;28;20032;-76
2023/06/20 10:53:47;;;;;;;2.47;1.60;;;29.50;96.20;;;;;;5054004;28;20533;-75
2023/06/20 10:56:26;;;;;;;1.65;0.43;;;30.50;95.80;;;;;;5054054;28;20065;-74
2023/06/20 10:58:52;;;;;;;3.40;1.25;;;30.80;95.30;;;;;;5041612;28;20094;-75
2023/06/20 11:01:18;;;;;;;3.20;1.38;;;30.50;94.50;;;;;;5053863;28;20036;-75
2023/06/20 11:03:45;;;;;;;0.75;0.40;;;30.40;94.50;;;;;;5046488;28;20056;-75
2023/06/20 11:06:16;;;;;;;0.40;0.40;;;30.40;94.90;;;;;;5049938;28;20357;-74
2023/06/20 11:08:45;;;;;;;0.55;0.55;;;29.80;94.70;;;;;;5050938;28;20040;-74
2023/06/20 11:11:11;;;;;;;3.53;1.42;;;29.70;95.30;;;;;;5052100;28;20536;-75
2023/06/20 11:13:43;;;;;;;2.60;0.38;;;29.40;95.60;;;;;;5052739;28;20033;-74
2023/06/20 11:16:19;;;;;;;0.47;0.47;;;29.20;96.10;;;;;;5048465;28;20104;-74
2023/06/20 11:18:45;;;;;;;0.20;0.20;;;28.80;96.80;;;;;;5053233;28;20032;-74
2023/06/20 11:21:14;;;;;;;1.05;0.60;;;29.80;96.40;;;;;;5051064;28;20104;-74
2023/06/20 11:23:40;;;;;;;1.23;0.90;;;30.60;94.90;;;;;;5052853;28;20044;-75
2023/06/20 11:26:06;;;;;;;0.50;0.50;;;30.30;95.50;;;;;;5052723;28;20017;-74
2023/06/20 11:28:31;;;;;;;0.85;0.82;;;30.40;95.00;;;;;;5052660;28;20029;-78
2023/06/20 11:31:09;;;;;;;0.55;0.43;;;30.50;95.40;;;;;;5052582;28;20147;-79
2023/06/20 11:33:34;;;;;;;0.10;0.10;;;30.00;94.80;;;;;;5051903;28;20551;-78
2023/06/20 11:36:00;;;;;;;1.15;0.82;;;30.20;94.90;;;;;;5052227;28;20060;-78
2023/06/20 11:38:29;;;;;;;3.28;0.90;;;30.60;94.20;;;;;;5052713;28;20047;-78
2023/06/20 11:41:06;;;;;;;1.92;0.77;;;30.30;94.20;;;;;;5052544;28;20034;-77
2023/06/20 11:43:40;;;;;;;0.55;0.38;;;29.60;95.10;;;;;;5042636;28;20543;-75
2023/06/20 11:46:07;;;;;;;0.40;0.40;;;29.30;95.60;;;;;;5050990;28;20025;-77
2023/06/20 11:48:34;;;;;;;2.70;1.02;;;29.50;95.80;;;;;;5052666;28;20484;-76
2023/06/20 11:51:03;;;;;;;1.05;0.88;;;29.80;95.40;;;;;;5050864;28;20040;-76
2023/06/20 11:53:35;;;;;;;0.00;0.00;;;29.60;96.20;;;;;;5052939;28;20033;-74
2023/06/20 11:56:06;;;;;;;;;;;29.30;95.80;;;;;;5052631;28;20025;-75
2023/06/20 11:58:53;;;;;;;0.50;0.40;;;29.50;95.60;;;;;;5052151;28;19909;-74
2023/06/20 12:01:24;;;;;;;1.90;1.10;;;30.20;95.20;;;;;;5052323;28;20375;-74
2023/06/20 12:04:12;;;;;;;0.00;0.00;;;30.40;94.90;;;;;;5042432;28;20043;-74
2023/06/20 12:06:42;;;;;;;1.65;0.43;;;30.40;95.30;;;;;;5051770;28;20095;-75
2023/06/20 12:09:09;;;;;;;0.00;0.00;;;30.40;94.70;;;;;;5052214;28;20082;-73
2023/06/20 12:11:49;;;;;;;0.22;0.22;;;29.90;95.30;;;;;;5051808;28;20025;-75
2023/06/20 12:14:16;;;;;;;1.33;0.75;;;29.80;96.30;;;;;;5050940;28;20222;-75
2023/06/20 12:16:42;;;;;;;1.02;0.60;;;30.30;95.80;;;;;;5046675;28;20424;-74
2023/06/20 12:19:08;;;;;;;3.40;0.80;;;30.20;95.30;;;;;;5051517;28;20028;-76
2023/06/20 12:21:38;;;;;;;1.80;0.47;;;30.10;95.50;;;;;;5052228;28;20035;-76
2023/06/20 12:24:05;;;;;;;3.50;1.55;;;30.40;95.70;;;;;;5050799;28;20409;-74
2023/06/20 12:26:31;;;;;;;3.00;0.80;;;30.30;95.50;;;;;;5052028;28;20033;-74
2023/06/20 12:28:57;;;;;;;1.10;0.77;;;30.10;95.40;;;;;;5051788;28;20116;-74
2023/06/20 12:31:24;;;;;;;0.00;0.00;;;30.10;94.80;;;;;;5050379;28;20090;-75
2023/06/20 12:33:50;;;;;;;0.10;0.10;;;30.10;95.40;;;;;;5051376;28;20036;-75
2023/06/20 12:36:17;;;;;;;0.32;0.22;;;30.50;94.80;;;;;;5051547;28;20025;-74
2023/06/20 12:38:43;;;;;;;0.40;0.40;;;30.20;95.20;;;;;;5050578;28;20025;-74
2023/06/20 12:41:10;;;;;;;0.13;0.13;;;29.60;95.10;;;;;;5051527;28;20496;-74
2023/06/20 12:43:37;;;;;;;0.70;0.70;;;29.60;95.80;;;;;;5051628;28;20037;-75
2023/06/20 12:46:03;;;;;;;4.00;0.80;;;29.50;95.50;;;;;;5054313;28;20474;-74
2023/06/20 12:48:29;;;;;;;0.10;0.10;;;29.80;96.00;;;;;;5055577;28;20032;-75
2023/06/20 12:50:55;;;;;;;0.95;0.63;;;30.30;95.10;;;;;;5056032;28;20029;-75
2023/06/20 12:53:21;;;;;;;1.98;1.10;;;30.80;94.50;;;;;;5055826;28;20077;-74